createdAt,value
2022-10-18T00:00:07.079Z,80.81
2022-10-18T00:02:54.993Z,80.41
2022-10-18T00:05:21.668Z,80.31
2022-10-18T00:07:48.347Z,81.96
2022-10-18T00:10:14.982Z,80.86
2022-10-18T00:12:42.147Z,80.54
2022-10-18T00:15:10.608Z,80.70
2022-10-18T00:17:38.962Z,81.81
2022-10-18T00:20:06.771Z,82.77
2022-10-18T00:22:34.891Z,83.69
2022-10-18T00:25:01.695Z,82.80
2022-10-18T00:27:29.788Z,81.81
2022-10-18T00:29:56.665Z,82.46
2022-10-18T00:32:24.548Z,82.40
2022-10-18T00:34:51.392Z,83.09
2022-10-18T00:37:18.575Z,83.46
2022-10-18T00:39:45.393Z,83.03
2022-10-18T00:42:20.649Z,84.19
2022-10-18T00:44:50.431Z,84.19
2022-10-18T00:47:19.099Z,83.99
2022-10-18T00:49:51.220Z,83.98
2022-10-18T00:52:23.652Z,83.89
2022-10-18T00:54:51.642Z,84.60
2022-10-18T00:57:18.898Z,84.83
2022-10-18T00:59:47.038Z,85.29
2022-10-18T01:02:17.599Z,84.08
2022-10-18T01:04:45.939Z,83.91
2022-10-18T01:07:24.780Z,83.67
2022-10-18T01:10:09.585Z,83.35
2022-10-18T01:12:43.112Z,84.78
2022-10-18T01:15:34.312Z,84.92
2022-10-18T01:18:21.638Z,84.92
2022-10-18T01:20:51.279Z,85.08
2022-10-18T01:23:43.082Z,85.92
2022-10-18T01:26:35.095Z,86.99
2022-10-18T01:29:08.663Z,86.94
2022-10-18T01:31:51.125Z,87.74
2022-10-18T01:34:19.406Z,87.41
2022-10-18T01:36:52.234Z,86.37
2022-10-18T01:39:29.230Z,85.49
2022-10-18T01:41:58.928Z,84.00
2022-10-18T01:44:29.235Z,83.10
2022-10-18T01:46:58.165Z,83.07
2022-10-18T01:49:26.280Z,82.83
2022-10-18T01:51:53.646Z,82.72
2022-10-18T01:54:30.985Z,82.88
2022-10-18T01:57:03.465Z,83.30
2022-10-18T01:59:38.086Z,83.20
2022-10-18T02:02:36.099Z,83.27
2022-10-18T02:05:27.550Z,84.03
2022-10-18T02:08:19.287Z,84.92
2022-10-18T02:11:08.973Z,85.67
2022-10-18T02:13:41.636Z,84.87
2022-10-18T02:16:17.418Z,85.51
2022-10-18T02:19:07.952Z,85.88
2022-10-18T02:21:37.790Z,86.46
2022-10-18T02:24:06.436Z,86.30
2022-10-18T02:26:33.331Z,86.18
2022-10-18T02:29:00.079Z,86.63
2022-10-18T02:31:35.944Z,85.90
2022-10-18T02:34:13.644Z,86.44
2022-10-18T02:36:45.596Z,87.14
2022-10-18T02:39:17.145Z,86.66
2022-10-18T02:41:43.976Z,86.49
2022-10-18T02:44:10.810Z,87.53
2022-10-18T02:46:38.819Z,85.78
2022-10-18T02:49:05.903Z,85.57
2022-10-18T02:51:33.915Z,85.48
2022-10-18T02:54:00.562Z,85.44
2022-10-18T02:56:27.364Z,85.49
2022-10-18T02:58:54.026Z,86.24
2022-10-18T03:01:20.829Z,86.87
2022-10-18T03:03:48.199Z,86.26
2022-10-18T03:06:15.113Z,86.05
2022-10-18T03:08:41.811Z,85.60
2022-10-18T03:11:08.668Z,85.43
2022-10-18T03:13:35.366Z,85.59
2022-10-18T03:16:02.054Z,86.03
2022-10-18T03:18:28.884Z,86.33
2022-10-18T03:20:55.506Z,87.20
2022-10-18T03:23:22.141Z,88.35
2022-10-18T03:25:49.084Z,88.27
2022-10-18T03:28:15.797Z,87.81
2022-10-18T03:30:42.746Z,88.06
2022-10-18T03:33:09.542Z,88.39
2022-10-18T03:35:36.171Z,88.81
2022-10-18T03:38:02.879Z,88.96
2022-10-18T03:43:01.318Z,89.58
2022-10-18T03:45:31.188Z,89.40
2022-10-18T03:47:58.502Z,88.66
2022-10-18T03:50:25.323Z,87.84
2022-10-18T03:52:53.628Z,87.17
2022-10-18T03:55:20.760Z,86.65
2022-10-18T03:57:47.458Z,86.59
2022-10-18T04:00:14.543Z,86.89
2022-10-18T04:02:41.368Z,87.06
2022-10-18T04:05:08.676Z,86.71
2022-10-18T04:10:08.363Z,85.32
2022-10-18T04:12:35.372Z,85.31
2022-10-18T04:15:03.072Z,86.54
2022-10-18T04:17:30.186Z,87.71
2022-10-18T04:19:57.089Z,88.63
2022-10-18T04:22:23.854Z,88.66
2022-10-18T04:24:52.722Z,88.50
2022-10-18T04:27:19.524Z,87.93
2022-10-18T04:29:46.265Z,87.31
2022-10-18T04:32:13.083Z,87.34
2022-10-18T04:34:39.872Z,88.77
2022-10-18T04:37:06.654Z,90.78
2022-10-18T04:39:33.506Z,91.45
2022-10-18T04:42:00.255Z,90.73
2022-10-18T04:44:27.468Z,89.75
2022-10-18T04:46:54.930Z,88.83
2022-10-18T04:49:24.405Z,87.91
2022-10-18T04:51:52.342Z,86.58
2022-10-18T04:54:19.263Z,86.40
2022-10-18T04:56:46.242Z,87.16
2022-10-18T04:59:15.408Z,87.52
2022-10-18T05:01:42.965Z,87.50
2022-10-18T05:04:12.048Z,87.22
2022-10-18T05:06:39.314Z,86.87
2022-10-18T05:09:06.676Z,86.09
2022-10-18T05:11:36.727Z,83.53
2022-10-18T05:14:04.568Z,81.93
2022-10-18T05:16:35.766Z,79.82
2022-10-18T05:19:08.004Z,78.54
2022-10-18T05:21:38.518Z,75.05
2022-10-18T05:24:07.092Z,73.23
2022-10-18T05:26:35.951Z,71.74
2022-10-18T10:18:03.914Z,18.85
2022-10-18T10:21:00.194Z,18.92
2022-10-18T10:23:36.924Z,18.95
2022-10-18T10:26:21.052Z,18.66
2022-10-18T10:28:48.949Z,18.20
2022-10-18T10:31:25.572Z,17.91
2022-10-18T10:34:15.026Z,18.13
2022-10-18T10:36:50.919Z,18.05
2022-10-18T10:39:20.344Z,17.88
2022-10-18T10:41:56.643Z,17.89
2022-10-18T10:44:30.302Z,17.61
2022-10-18T10:46:59.356Z,17.46
2022-10-18T10:49:43.018Z,17.86
2022-10-18T10:52:29.186Z,17.83
2022-10-18T10:55:23.224Z,17.97
2022-10-18T10:57:56.397Z,18.02
2022-10-18T11:00:44.334Z,18.25
2022-10-18T11:03:28.658Z,18.55
2022-10-18T11:06:00.056Z,19.02
2022-10-18T11:08:35.279Z,19.40
2022-10-18T11:11:16.028Z,19.37
2022-10-18T11:13:56.935Z,19.83
2022-10-18T11:16:56.910Z,19.94
2022-10-18T11:19:39.053Z,19.98
2022-10-18T11:22:18.925Z,21.65
2022-10-18T11:24:49.986Z,23.54
2022-10-18T11:27:28.223Z,24.85
2022-10-18T11:30:07.008Z,26.12
2022-10-18T11:32:47.151Z,28.09
2022-10-18T11:35:39.899Z,29.44
2022-10-18T11:38:15.582Z,30.41
2022-10-18T11:41:05.974Z,30.63
2022-10-18T11:44:02.122Z,32.47
2022-10-18T11:46:48.940Z,33.18
2022-10-18T11:49:35.770Z,33.74
2022-10-18T11:52:08.755Z,34.47
2022-10-18T11:55:07.133Z,35.38
2022-10-18T11:57:50.149Z,36.36
2022-10-18T12:00:31.715Z,36.25
2022-10-18T12:03:15.836Z,36.46
2022-10-18T12:05:45.562Z,37.05
2022-10-18T12:08:22.378Z,37.35
2022-10-18T12:11:05.865Z,37.67
2022-10-18T12:13:40.677Z,38.56
2022-10-18T12:16:10.533Z,39.02
2022-10-18T12:21:26.394Z,40.29
2022-10-18T12:23:59.155Z,40.95
2022-10-18T12:26:31.893Z,40.99
2022-10-18T12:29:08.101Z,41.16
2022-10-18T12:31:41.858Z,41.91
2022-10-18T12:34:24.208Z,42.27
2022-10-18T12:37:21.888Z,42.49
2022-10-18T12:40:10.197Z,43.09
2022-10-18T12:42:49.742Z,43.69
2022-10-18T12:45:34.600Z,43.74
2022-10-18T12:48:27.890Z,44.40
2022-10-18T12:51:14.757Z,45.25
2022-10-18T12:53:45.555Z,45.50
2022-10-18T12:56:28.997Z,45.13
2022-10-18T12:59:16.051Z,45.52
2022-10-18T13:02:05.909Z,45.92
2022-10-18T13:04:34.687Z,46.15
2022-10-18T13:07:07.801Z,46.02
2022-10-18T13:09:48.695Z,46.18
2022-10-18T13:12:15.813Z,47.07
2022-10-18T13:15:24.144Z,46.98
2022-10-18T13:17:58.813Z,46.56
2022-10-18T13:20:48.060Z,47.12
2022-10-18T13:23:35.466Z,47.13
2022-10-18T13:26:33.634Z,47.32
2022-10-18T13:29:12.815Z,46.77
2022-10-18T13:31:47.300Z,47.35
2022-10-18T13:34:16.773Z,47.54
2022-10-18T13:36:43.623Z,48.14
2022-10-18T13:39:19.701Z,47.68
2022-10-18T13:41:46.313Z,47.86
2022-10-18T13:44:31.223Z,47.95
2022-10-18T13:46:57.983Z,48.10
2022-10-18T13:49:47.055Z,48.57
2022-10-18T13:52:36.067Z,48.47
2022-10-18T13:55:27.874Z,48.53
2022-10-18T13:58:03.748Z,48.34
2022-10-18T14:01:11.487Z,48.33
2022-10-18T14:04:26.129Z,48.54
2022-10-18T14:07:02.225Z,48.47
2022-10-18T14:09:52.514Z,49.18
2022-10-18T14:12:28.059Z,49.69
2022-10-18T14:15:20.153Z,49.23
2022-10-18T14:18:20.338Z,49.81
2022-10-18T14:21:12.948Z,49.92
2022-10-18T14:23:44.146Z,50.06
2022-10-18T14:26:19.987Z,49.97
2022-10-18T14:29:05.297Z,50.50
2022-10-18T14:31:32.680Z,50.19
2022-10-18T14:34:00.646Z,51.45
2022-10-18T14:36:33.359Z,50.65
2022-10-18T14:39:03.882Z,50.59
2022-10-18T14:41:32.908Z,50.94
2022-10-18T14:44:14.827Z,51.03
2022-10-18T14:47:15.953Z,51.53
2022-10-18T14:49:46.149Z,51.90
2022-10-18T14:52:18.684Z,52.04
2022-10-18T14:54:46.295Z,51.81
2022-10-18T14:57:24.474Z,52.02
2022-10-18T14:59:58.877Z,51.83
2022-10-18T15:02:26.259Z,51.92
2022-10-18T15:04:59.754Z,52.69
2022-10-18T15:07:30.224Z,53.02
2022-10-18T15:09:59.894Z,53.43
2022-10-18T15:12:36.931Z,53.94
2022-10-18T15:15:19.617Z,54.19
2022-10-18T15:17:48.898Z,54.50
2022-10-18T15:20:21.428Z,54.36
2022-10-18T15:22:48.373Z,54.46
2022-10-18T15:25:26.758Z,54.82
2022-10-18T15:27:57.890Z,55.94
2022-10-18T15:30:28.394Z,55.95
2022-10-18T15:33:01.575Z,56.31
2022-10-18T15:35:31.613Z,57.87
2022-10-18T15:38:04.293Z,58.91
2022-10-18T15:40:34.941Z,59.25
2022-10-18T15:43:05.499Z,59.82
2022-10-18T15:45:35.929Z,60.47
2022-10-18T15:48:05.763Z,61.54
2022-10-18T15:50:40.604Z,62.28
2022-10-18T15:53:38.413Z,62.46
2022-10-18T15:56:07.086Z,62.64
2022-10-18T15:58:40.613Z,63.50
2022-10-18T16:01:21.973Z,63.88
2022-10-18T16:03:50.975Z,64.44
2022-10-18T16:06:23.004Z,64.63
2022-10-18T16:08:54.981Z,65.25
2022-10-18T16:11:24.261Z,65.47
2022-10-18T16:14:00.557Z,65.70
2022-10-18T16:16:28.791Z,65.86
2022-10-18T16:18:55.749Z,67.72
2022-10-18T16:21:28.972Z,68.57
2022-10-18T16:23:56.164Z,68.64
2022-10-18T16:26:23.941Z,68.47
2022-10-18T16:28:50.793Z,69.93
2022-10-18T16:31:20.419Z,69.97
2022-10-18T16:33:47.887Z,70.38
2022-10-18T16:36:20.335Z,70.55
2022-10-18T16:38:48.104Z,71.24
2022-10-18T16:41:18.231Z,70.90
2022-10-18T16:43:46.964Z,71.12
2022-10-18T16:46:17.373Z,71.65
2022-10-18T16:48:45.328Z,73.09
2022-10-18T16:51:12.165Z,72.74
2022-10-18T16:53:40.617Z,73.40
2022-10-18T16:56:13.904Z,73.06
2022-10-18T16:58:40.867Z,72.81
2022-10-18T17:01:15.557Z,72.80
2022-10-18T17:03:43.337Z,74.24
2022-10-18T17:06:17.817Z,72.57
2022-10-18T17:08:44.673Z,72.14
2022-10-18T17:11:13.171Z,71.96
2022-10-18T17:13:40.507Z,72.22
2022-10-18T17:16:30.522Z,72.44
2022-10-18T17:18:59.687Z,72.72
2022-10-18T17:21:28.179Z,72.92
2022-10-18T17:23:59.798Z,73.31
2022-10-18T17:26:29.759Z,73.64
2022-10-18T17:29:00.264Z,74.47
2022-10-18T17:31:28.542Z,75.35
2022-10-18T17:33:57.800Z,75.48
2022-10-18T17:36:25.515Z,75.79
2022-10-18T17:38:54.509Z,74.79
2022-10-18T17:41:21.655Z,74.42
2022-10-18T17:43:48.853Z,74.26
2022-10-18T17:46:17.228Z,74.94
2022-10-18T17:48:44.092Z,75.85
2022-10-18T17:51:13.322Z,75.93
2022-10-18T17:53:40.819Z,76.03
2022-10-18T17:56:08.169Z,75.41
2022-10-18T17:58:35.568Z,75.57
2022-10-18T18:01:21.194Z,76.01
2022-10-18T18:03:48.745Z,76.10
2022-10-18T18:06:19.390Z,76.69
2022-10-18T18:08:48.056Z,76.50
2022-10-18T18:11:15.639Z,76.18
2022-10-18T18:13:42.513Z,76.96
2022-10-18T18:16:18.453Z,77.24
2022-10-18T18:18:46.890Z,77.66
2022-10-18T18:21:13.831Z,77.31
2022-10-18T18:23:41.030Z,76.98
2022-10-18T18:26:08.097Z,76.94
2022-10-18T18:28:35.710Z,76.51
2022-10-18T18:31:10.535Z,77.05
2022-10-18T18:33:37.520Z,77.19
2022-10-18T18:36:06.363Z,77.22
2022-10-18T18:38:34.935Z,77.15
2022-10-18T18:41:14.581Z,77.18
2022-10-18T18:43:44.996Z,78.28
2022-10-18T18:46:12.676Z,76.88
2022-10-18T18:48:40.402Z,75.70
2022-10-18T18:51:12.444Z,75.52
2022-10-18T18:53:40.819Z,75.93
2022-10-18T18:56:10.557Z,76.59
2022-10-18T18:58:38.939Z,75.72
2022-10-18T19:01:11.458Z,75.93
2022-10-18T19:03:39.759Z,76.52
2022-10-18T19:06:13.881Z,77.17
2022-10-18T19:08:41.596Z,78.24
2022-10-18T19:11:09.350Z,77.98
2022-10-18T19:13:36.761Z,78.45
2022-10-18T19:16:18.820Z,77.97
2022-10-18T19:18:58.482Z,78.37
2022-10-18T19:21:28.324Z,78.79
2022-10-18T19:23:56.421Z,78.44
2022-10-18T19:26:27.710Z,77.79
2022-10-18T19:28:54.808Z,79.43
2022-10-18T19:31:22.486Z,79.36
2022-10-18T19:33:59.331Z,79.65
2022-10-18T19:36:27.786Z,78.71
2022-10-18T19:38:54.652Z,79.55
2022-10-18T19:41:23.313Z,79.79
2022-10-18T19:43:50.957Z,79.76
2022-10-18T19:46:17.990Z,78.74
2022-10-18T19:48:44.813Z,80.74
2022-10-18T19:51:15.995Z,79.44
2022-10-18T19:53:46.517Z,80.50
2022-10-18T19:56:18.195Z,80.99
2022-10-18T19:58:45.678Z,81.55
2022-10-18T20:01:12.919Z,83.61
2022-10-18T20:03:39.823Z,83.58
2022-10-18T20:06:06.579Z,83.82
2022-10-18T20:08:34.886Z,82.75
2022-10-18T20:11:07.507Z,81.63
2022-10-18T20:13:35.047Z,81.43
2022-10-18T20:16:03.523Z,81.77
2022-10-18T20:18:30.250Z,82.77
2022-10-18T20:20:56.894Z,82.14
2022-10-18T20:23:23.875Z,82.39
2022-10-18T20:26:02.141Z,83.83
2022-10-18T20:28:29.118Z,84.85
2022-10-18T20:31:05.730Z,86.47
2022-10-18T20:33:33.775Z,84.33
2022-10-18T20:36:06.238Z,83.56
2022-10-18T20:38:38.318Z,82.64
2022-10-18T20:41:09.510Z,82.88
2022-10-18T20:43:36.945Z,84.07
2022-10-18T20:46:04.964Z,85.00
2022-10-18T20:48:33.112Z,85.08
2022-10-18T20:51:08.980Z,84.94
2022-10-18T20:53:36.635Z,85.15
2022-10-18T20:56:08.912Z,84.82
2022-10-18T20:58:37.414Z,83.74
2022-10-18T21:01:16.595Z,84.79
2022-10-18T21:03:45.603Z,85.67
2022-10-18T21:06:18.209Z,85.75
2022-10-18T21:08:45.529Z,86.10
2022-10-18T21:11:12.980Z,86.12
2022-10-18T21:13:42.422Z,86.79
2022-10-18T21:16:09.235Z,87.61
2022-10-18T21:18:37.478Z,86.18
2022-10-18T21:21:08.583Z,85.76
2022-10-18T21:23:35.509Z,86.37
2022-10-18T21:26:02.446Z,85.87
2022-10-18T21:28:29.205Z,86.84
2022-10-18T21:30:57.277Z,88.33
2022-10-18T21:33:23.931Z,90.93
2022-10-18T21:35:50.589Z,89.77
2022-10-18T21:38:17.249Z,89.00
2022-10-18T21:40:44.003Z,89.71
2022-10-18T21:43:11.226Z,87.86
2022-10-18T21:45:37.775Z,88.54
2022-10-18T21:48:04.515Z,89.88
2022-10-18T21:50:33.382Z,88.12
2022-10-18T21:52:59.947Z,88.45
2022-10-18T21:55:26.529Z,89.61
2022-10-18T21:57:53.074Z,86.49
2022-10-18T22:00:19.720Z,87.25
2022-10-18T22:02:46.371Z,87.12
2022-10-18T22:05:12.966Z,85.33
2022-10-18T22:07:39.575Z,85.81
2022-10-18T22:10:06.499Z,85.99
2022-10-18T22:12:33.172Z,85.86
2022-10-18T22:15:01.760Z,87.86
2022-10-18T22:17:28.369Z,87.13
2022-10-18T22:19:54.980Z,86.26
2022-10-18T22:22:22.895Z,85.29
2022-10-18T22:24:49.504Z,85.42
2022-10-18T22:27:16.086Z,84.46
2022-10-18T22:29:42.784Z,84.53
2022-10-18T22:32:09.384Z,84.09
2022-10-18T22:34:36.191Z,85.05
2022-10-18T22:37:02.946Z,86.10
2022-10-18T22:39:29.572Z,87.33
2022-10-18T22:41:56.921Z,86.51
2022-10-18T22:44:24.517Z,84.69
2022-10-18T22:46:51.206Z,83.37
2022-10-18T22:49:18.121Z,83.11
2022-10-18T22:51:44.853Z,82.64
2022-10-18T22:54:11.420Z,81.93
2022-10-18T22:56:38.095Z,82.46
2022-10-18T22:59:05.587Z,83.28
2022-10-18T23:01:33.557Z,84.00
2022-10-18T23:04:01.959Z,83.93
2022-10-18T23:06:34.401Z,82.27
2022-10-18T23:09:06.850Z,81.75
2022-10-18T23:11:35.012Z,80.60
2022-10-18T23:14:03.351Z,80.51
2022-10-18T23:16:30.986Z,82.41
2022-10-18T23:18:57.974Z,82.75
2022-10-18T23:21:27.673Z,82.41
2022-10-18T23:23:55.662Z,82.46
2022-10-18T23:26:25.144Z,82.23
2022-10-18T23:28:53.427Z,82.70
2022-10-18T23:31:27.299Z,83.36
2022-10-18T23:33:56.600Z,86.15
2022-10-18T23:36:23.881Z,89.23
2022-10-18T23:38:51.262Z,90.59
2022-10-18T23:41:18.358Z,89.25
2022-10-18T23:43:45.613Z,87.86
2022-10-18T23:46:15.290Z,85.58
2022-10-18T23:48:41.990Z,85.42
2022-10-18T23:51:09.182Z,84.48
2022-10-18T23:53:36.318Z,83.94
2022-10-18T23:56:09.375Z,83.96
2022-10-18T23:58:37.348Z,83.44
